Terminal Aerodrome Forecast
Issued by NWS

Home | Current Version | Previous Version | Text Only | Print | Product List | Glossary On
Versions: 1 2 3 4 5 6 7 8 9 10 11 12
000
FTUS44 KTSA 242330
TAFRVS
TAF
KRVS 242330Z 2500/2524 17005KT P6SM FEW250
     FM251200 VRB03KT P6SM BKN050 PROB30 2512/2518 5SM -TSRA
      BKN050CB
     FM251800 13007KT P6SM BKN050 PROB30 2518/2524 5SM -TSRA
      BKN040CB=

USA.gov is the U.S. government's official web portal to all federal, state and local government web resources and services.